Yakima, WA

12:07 AM PDT on August 22, 2014 (GMT -0700)
Terraced Estates | Change Station
CLOSE
Current Station
Personal Weather Station
Location: Terrace Heights, WA
Elevation: 1302 ft
Nearby Weather Stations

Elev 1302 ft 46.61 °N, 120.43 °W | Updated 13 minutes ago

Mostly Cloudy
Mostly Cloudy
65.7 °F
Feels Like 65.7 °F
N
3.0
Wind Variable Wind from NNW
Gusts 6.0 mph

Today
High -- | Low -- °F
--% Chance of Precip.
Yesterday
High -- | Low -- °F
Precip. -- in
6:08 AM 7:59 PM
Waning Crescent, 10% visible
Pressure 29.92 in
Visibility 10.0 miles
Clouds Mostly Cloudy 13000 ft
Dew Point 36 °F
Humidity 33%
Rainfall 0.00 in
Snow Depth Not available.
UV 0 out of 12
Pollen 4.00 out of 12
Air Quality Not available.
Flu Activity Not available.
METAR K1YT 220657Z AUTO 10009KT 10SM BKN130 18/01 A2992 RMK AO2 SLPNO T01780006

More Conditions Fewer Conditions

Pressure 29.92 in
Visibility 10.0 miles
Clouds Mostly Cloudy 13000 ft
Dew Point 36 °F
Humidity 33%
Rainfall 0.00 in
Snow Depth Not available.
UV 0 out of 12
Pollen 4.00 out of 12
Air Quality Not available.
Flu Activity Not available.
METAR K1YT 220657Z AUTO 10009KT 10SM BKN130 18/01 A2992 RMK AO2 SLPNO T01780006

More Conditions Fewer Conditions

10-Day Weather Forecast

Almanac

Astronomy

Aug. 22, 2014 Rise Set
Actual Time 6:08 AM PDT 7:59 PM PDT
Civil Twilight 5:36 AM PDT 8:31 PM PDT
Nautical Twilight 4:56 AM PDT 9:10 PM PDT
Astronomical Twilight 4:13 AM PDT 9:53 PM PDT
Moon 3:31 AM PDT 6:13 PM PDT
Length of Visible Light 14h 54m
Length of Day
13h 50m
Tomorrow will be 3m 5s shorter.
Waning Crescent, 10% of the Moon is Illuminated
Today
Waning Crescent
Aug 25
New
Sep 2
First Quarter
Sep 8
Full
Sep 15
Last Quarter

Community

WunderPhotos

Upload Photos

1,746,131 photos uploaded!

Nearby

Snow Depth

Station Depth Elevation
Green Lake 0 in 6000 ft
Lost Horse 0 in 5000 ft
Trough 0 in 5300 ft
Grouse Camp 0 in 5380 ft
White Pass E.S. 0 in 4500 ft

Earthquake Activity

City Distance Mag. Time & Date
No recent earthquake activity has been reported nearby.
Minimum magnitude displayed is 2.5.

Coastal Water Temperatures

Place Temperature
No Stations Reporting

Nearby Weather Stations